Time;durP1;ratioP1;P1;durP2;ratioP2;P2;SDS_P1;SDS_P2;PMS_P1;PMS_P2;Temp;Humidity;BMP_temperature;BMP_pressure;BME280_temperature;BME280_humidity;BME280_pressure;Samples;Min_cycle;Max_cycle;Signal;HPM_P1;HPM_P2
2024/01/22 00:00:09;;;;;;;13.97;6.80;;;;;;;;;;5070090;23;20238;-69
2024/01/22 00:02:35;;;;;;;13.60;6.63;;;;;;;;;;5056388;28;20206;-68
2024/01/22 00:05:01;;;;;;;12.40;6.07;;;;;;;;;;5056415;28;20186;-67
2024/01/22 00:07:27;;;;;;;8.33;5.60;;;;;;;;;;5056460;28;20218;-68
2024/01/22 00:09:53;;;;;;;10.77;5.03;;;;;;;;;;5056656;28;20252;-67
2024/01/22 00:12:19;;;;;;;9.67;4.80;;;;;;;;;;5038567;28;20174;-67
2024/01/22 00:14:47;;;;;;;11.50;6.33;;;;;;;;;;5056260;28;20265;-68
2024/01/22 00:17:13;;;;;;;12.70;6.53;;;;;;;;;;5038128;28;20175;-69
2024/01/22 00:19:39;;;;;;;9.47;4.93;;;;;;;;;;5055736;28;20194;-67
2024/01/22 00:22:06;;;;;;;9.23;4.47;;;;;;;;;;5055759;28;20181;-68
2024/01/22 00:24:31;;;;;;;12.97;5.23;;;;;;;;;;5055754;28;20289;-69
2024/01/22 00:26:57;;;;;;;13.33;5.30;;;;;;;;;;5055343;28;20217;-68
2024/01/22 00:29:23;;;;;;;6.30;3.73;;;;;;;;;;5055074;28;20214;-68
2024/01/22 00:31:49;;;;;;;11.10;4.67;;;;;;;;;;5055789;28;20200;-68
2024/01/22 00:34:15;;;;;;;9.77;4.87;;;;;;;;;;5055058;28;20314;-66
2024/01/22 00:36:41;;;;;;;10.40;5.23;;;;;;;;;;5036980;28;20190;-68
2024/01/22 00:39:07;;;;;;;10.83;5.67;;;;;;;;;;5055516;28;20205;-66
2024/01/22 00:41:33;;;;;;;14.20;6.00;;;;;;;;;;5055840;28;20179;-68
2024/01/22 00:43:59;;;;;;;12.60;5.40;;;;;;;;;;5046406;28;20632;-67
2024/01/22 00:46:25;;;;;;;10.03;5.30;;;;;;;;;;5065990;28;20174;-68
2024/01/22 00:48:51;;;;;;;10.67;5.13;;;;;;;;;;5059117;28;20178;-66
2024/01/22 00:51:17;;;;;;;9.77;4.83;;;;;;;;;;5056250;28;20182;-68
2024/01/22 00:53:43;;;;;;;9.93;4.80;;;;;;;;;;5037751;28;20719;-68
2024/01/22 00:56:10;;;;;;;9.80;4.83;;;;;;;;;;5055307;28;20213;-67
2024/01/22 00:58:36;;;;;;;11.17;5.60;;;;;;;;;;5037319;28;20193;-67
2024/01/22 01:01:01;;;;;;;12.83;5.70;;;;;;;;;;5037190;28;20217;-69
2024/01/22 01:03:28;;;;;;;10.47;4.73;;;;;;;;;;5056090;28;20198;-66
2024/01/22 01:05:53;;;;;;;8.93;5.13;;;;;;;;;;5056292;28;20210;-66
2024/01/22 01:08:19;;;;;;;5.13;3.30;;;;;;;;;;5055737;28;20178;-68
2024/01/22 01:10:45;;;;;;;6.13;3.20;;;;;;;;;;5056036;28;20198;-69
2024/01/22 01:13:11;;;;;;;5.80;3.13;;;;;;;;;;5055914;28;20257;-67
2024/01/22 01:15:37;;;;;;;4.27;2.50;;;;;;;;;;5038425;28;20186;-67
2024/01/22 01:18:03;;;;;;;4.83;2.63;;;;;;;;;;5056010;28;20655;-68
2024/01/22 01:20:29;;;;;;;4.37;2.07;;;;;;;;;;5055259;28;20206;-68
2024/01/22 01:22:55;;;;;;;3.90;2.10;;;;;;;;;;5055236;28;20285;-68
2024/01/22 01:25:21;;;;;;;2.40;2.20;;;;;;;;;;5055698;28;20181;-67
2024/01/22 01:27:47;;;;;;;4.03;2.00;;;;;;;;;;5037304;28;20551;-68
2024/01/22 01:30:14;;;;;;;3.60;2.10;;;;;;;;;;5037382;28;20191;-68
2024/01/22 01:32:40;;;;;;;3.93;1.97;;;;;;;;;;5055321;28;20190;-67
2024/01/22 01:35:06;;;;;;;2.23;1.90;;;;;;;;;;5037372;28;20558;-68
2024/01/22 01:37:32;;;;;;;6.67;1.97;;;;;;;;;;5055381;28;20179;-67
2024/01/22 01:39:58;;;;;;;4.03;2.50;;;;;;;;;;5055048;28;20266;-67
2024/01/22 01:42:24;;;;;;;3.27;2.10;;;;;;;;;;5054969;28;20183;-77
2024/01/22 01:44:50;;;;;;;4.20;1.90;;;;;;;;;;5054978;28;20182;-67
2024/01/22 01:47:17;;;;;;;3.00;2.10;;;;;;;;;;5055104;28;20182;-68
2024/01/22 01:49:44;;;;;;;3.83;2.00;;;;;;;;;;5055035;28;20273;-68
2024/01/22 01:52:11;;;;;;;2.73;2.00;;;;;;;;;;5054740;28;20189;-68
2024/01/22 01:54:38;;;;;;;2.80;2.00;;;;;;;;;;5054987;28;20189;-68
2024/01/22 01:57:05;;;;;;;3.27;2.40;;;;;;;;;;5055316;28;20253;-68
2024/01/22 01:59:32;;;;;;;4.23;2.13;;;;;;;;;;5054612;28;20257;-68
2024/01/22 02:01:57;;;;;;;2.23;1.80;;;;;;;;;;5054663;28;20197;-68
2024/01/22 02:04:23;;;;;;;3.67;2.20;;;;;;;;;;5054731;28;20206;-68
2024/01/22 02:06:49;;;;;;;4.33;2.20;;;;;;;;;;5037415;28;20656;-68
2024/01/22 02:09:15;;;;;;;3.83;2.13;;;;;;;;;;5055135;28;20194;-67
2024/01/22 02:11:41;;;;;;;3.27;2.30;;;;;;;;;;5054745;28;20197;-70
2024/01/22 02:14:07;;;;;;;11.00;2.50;;;;;;;;;;5055305;28;20553;-69
2024/01/22 02:16:33;;;;;;;4.77;2.23;;;;;;;;;;5054366;28;20178;-67
2024/01/22 02:18:59;;;;;;;3.97;2.10;;;;;;;;;;5054499;28;20183;-68
2024/01/22 02:21:25;;;;;;;4.33;2.10;;;;;;;;;;5054380;28;20649;-69
2024/01/22 02:23:51;;;;;;;2.47;1.77;;;;;;;;;;5054860;28;20202;-67
2024/01/22 02:26:17;;;;;;;3.70;1.80;;;;;;;;;;5054619;28;20312;-66
2024/01/22 02:28:43;;;;;;;2.63;1.90;;;;;;;;;;5054070;28;20251;-67
2024/01/22 02:31:10;;;;;;;4.10;2.13;;;;;;;;;;5036095;28;20285;-68
2024/01/22 02:33:36;;;;;;;5.70;2.37;;;;;;;;;;5053928;28;20642;-68
2024/01/22 02:36:02;;;;;;;3.13;1.90;;;;;;;;;;5053990;28;20179;-74
2024/01/22 02:38:28;;;;;;;5.20;2.23;;;;;;;;;;5054110;28;20281;-68
2024/01/22 02:40:54;;;;;;;3.00;2.13;;;;;;;;;;5053910;28;20203;-69
2024/01/22 02:43:20;;;;;;;5.77;2.57;;;;;;;;;;5034832;28;20305;-68
2024/01/22 02:45:47;;;;;;;6.10;2.53;;;;;;;;;;5035896;28;20175;-68
2024/01/22 02:48:13;;;;;;;4.40;2.30;;;;;;;;;;5054524;28;20178;-68
2024/01/22 02:50:39;;;;;;;4.27;2.53;;;;;;;;;;5054217;28;20676;-67
2024/01/22 02:53:05;;;;;;;3.60;2.37;;;;;;;;;;5054167;28;20532;-68
2024/01/22 02:55:31;;;;;;;2.90;2.00;;;;;;;;;;5054018;28;20185;-68
2024/01/22 02:57:57;;;;;;;3.03;1.90;;;;;;;;;;5054189;28;20265;-68
2024/01/22 03:00:23;;;;;;;2.73;2.20;;;;;;;;;;5054256;28;20256;-68
2024/01/22 03:02:49;;;;;;;2.60;1.90;;;;;;;;;;5053938;28;20199;-64
2024/01/22 03:05:15;;;;;;;2.70;2.10;;;;;;;;;;5035875;28;20182;-65
2024/01/22 03:07:41;;;;;;;2.60;1.93;;;;;;;;;;5036031;28;20183;-64
2024/01/22 03:10:07;;;;;;;2.33;1.87;;;;;;;;;;5054100;28;20738;-64
2024/01/22 03:12:33;;;;;;;3.43;2.00;;;;;;;;;;5053535;28;20175;-64
2024/01/22 03:14:59;;;;;;;2.07;1.60;;;;;;;;;;5054175;28;20232;-63
2024/01/22 03:17:28;;;;;;;2.23;1.93;;;;;;;;;;5053713;28;20171;-64
2024/01/22 03:19:54;;;;;;;4.00;2.30;;;;;;;;;;5053653;28;20684;-64
2024/01/22 03:22:20;;;;;;;3.03;1.97;;;;;;;;;;5054041;28;20182;-64
2024/01/22 03:24:46;;;;;;;3.30;1.70;;;;;;;;;;5053904;28;20289;-64
2024/01/22 03:27:12;;;;;;;3.77;2.00;;;;;;;;;;5053774;28;20233;-64
2024/01/22 03:29:38;;;;;;;3.07;2.37;;;;;;;;;;5035877;28;20199;-63
2024/01/22 03:32:04;;;;;;;2.77;2.00;;;;;;;;;;5036490;28;20257;-63
2024/01/22 03:34:30;;;;;;;1.73;1.60;;;;;;;;;;5035673;28;20183;-66
2024/01/22 03:36:56;;;;;;;3.13;1.80;;;;;;;;;;5053591;28;20281;-65
2024/01/22 03:39:22;;;;;;;4.00;2.27;;;;;;;;;;5053293;28;20245;-64
2024/01/22 03:41:49;;;;;;;2.83;1.80;;;;;;;;;;5053934;28;20185;-64
2024/01/22 03:44:15;;;;;;;3.20;1.83;;;;;;;;;;5035752;28;20206;-63
2024/01/22 03:46:41;;;;;;;2.17;1.97;;;;;;;;;;5053660;28;20178;-64
2024/01/22 03:49:08;;;;;;;3.97;1.80;;;;;;;;;;5053544;28;20202;-65
2024/01/22 03:51:34;;;;;;;2.63;1.90;;;;;;;;;;5053605;28;20698;-63
2024/01/22 03:54:00;;;;;;;2.17;1.90;;;;;;;;;;5053397;28;20265;-63
2024/01/22 03:56:26;;;;;;;2.30;1.90;;;;;;;;;;5038653;28;20275;-63
2024/01/22 03:58:52;;;;;;;3.87;2.27;;;;;;;;;;5039024;28;20186;-62
2024/01/22 04:01:22;;;;;;;4.43;2.20;;;;;;;;;;5056671;28;20182;-63
2024/01/22 04:03:48;;;;;;;4.60;2.90;;;;;;;;;;5056769;28;20586;-63
2024/01/22 04:06:14;;;;;;;5.13;3.00;;;;;;;;;;5057122;28;20206;-64
2024/01/22 04:08:40;;;;;;;4.40;3.20;;;;;;;;;;5057198;28;20237;-63
2024/01/22 04:11:06;;;;;;;5.97;2.80;;;;;;;;;;5056599;28;20202;-64
2024/01/22 04:13:32;;;;;;;6.70;3.40;;;;;;;;;;5056544;28;20224;-63
2024/01/22 04:15:58;;;;;;;5.93;2.83;;;;;;;;;;5057728;28;20187;-63
2024/01/22 04:18:24;;;;;;;2.40;2.20;;;;;;;;;;5056731;28;20174;-63
2024/01/22 04:20:50;;;;;;;3.63;2.30;;;;;;;;;;5056695;28;20213;-63
2024/01/22 04:23:16;;;;;;;4.00;3.47;;;;;;;;;;5056314;28;20679;-63
2024/01/22 04:25:42;;;;;;;4.50;3.20;;;;;;;;;;5056974;28;20650;-63
2024/01/22 04:28:07;;;;;;;8.43;3.87;;;;;;;;;;5056239;28;20612;-63
2024/01/22 04:30:33;;;;;;;4.13;3.57;;;;;;;;;;5038028;28;20392;-63
2024/01/22 04:32:59;;;;;;;4.67;3.43;;;;;;;;;;5056508;28;20236;-65
2024/01/22 04:35:25;;;;;;;3.70;3.20;;;;;;;;;;5056331;28;20183;-63
2024/01/22 04:37:51;;;;;;;7.50;3.37;;;;;;;;;;5056024;28;20265;-63
2024/01/22 04:40:18;;;;;;;7.07;2.80;;;;;;;;;;5054984;28;20230;-63
2024/01/22 04:42:44;;;;;;;5.00;2.67;;;;;;;;;;5054809;28;20666;-63
2024/01/22 04:45:10;;;;;;;3.47;2.27;;;;;;;;;;5055586;28;20182;-63
2024/01/22 04:47:36;;;;;;;5.77;2.60;;;;;;;;;;5056074;28;20199;-64
2024/01/22 04:50:02;;;;;;;4.23;1.67;;;;;;;;;;5056306;28;20252;-63
2024/01/22 04:52:28;;;;;;;1.57;1.47;;;;;;;;;;5055912;28;20182;-63
2024/01/22 04:54:54;;;;;;;5.43;1.63;;;;;;;;;;5056333;28;20543;-64
2024/01/22 04:57:20;;;;;;;2.27;1.57;;;;;;;;;;5055373;28;20182;-63
2024/01/22 04:59:46;;;;;;;1.60;1.33;;;;;;;;;;5055568;28;20214;-63
2024/01/22 05:02:12;;;;;;;2.47;2.20;;;;;;;;;;5055734;28;20177;-64
2024/01/22 05:04:38;;;;;;;3.43;2.10;;;;;;;;;;5037830;28;20242;-63
2024/01/22 05:07:04;;;;;;;3.30;1.50;;;;;;;;;;5054718;28;20179;-63
2024/01/22 05:09:30;;;;;;;2.57;1.60;;;;;;;;;;5055764;28;20190;-63
2024/01/22 05:11:56;;;;;;;3.90;1.50;;;;;;;;;;5055629;28;20198;-64
2024/01/22 05:14:22;;;;;;;1.80;1.37;;;;;;;;;;5054942;28;20633;-63
2024/01/22 05:16:48;;;;;;;1.67;1.40;;;;;;;;;;5054764;28;20253;-64
2024/01/22 05:19:14;;;;;;;1.13;1.03;;;;;;;;;;5054800;28;20194;-63
2024/01/22 05:21:40;;;;;;;2.60;1.20;;;;;;;;;;5054914;28;20193;-64
2024/01/22 05:24:06;;;;;;;2.37;1.37;;;;;;;;;;5036838;28;20259;-63
2024/01/22 05:26:32;;;;;;;1.80;1.60;;;;;;;;;;5036893;28;20182;-64
2024/01/22 05:28:58;;;;;;;1.73;1.40;;;;;;;;;;5054162;28;20536;-63
2024/01/22 05:31:24;;;;;;;1.20;1.10;;;;;;;;;;5036011;28;20177;-63
2024/01/22 05:33:50;;;;;;;2.30;1.33;;;;;;;;;;5054386;28;20190;-66
2024/01/22 05:36:16;;;;;;;3.00;1.10;;;;;;;;;;5054023;28;20206;-64
2024/01/22 05:38:42;;;;;;;3.57;1.20;;;;;;;;;;5053868;28;20186;-62
2024/01/22 05:41:08;;;;;;;1.00;0.93;;;;;;;;;;5053174;28;20236;-65
2024/01/22 05:43:34;;;;;;;2.20;1.30;;;;;;;;;;5053421;28;20617;-65
2024/01/22 05:46:00;;;;;;;0.80;0.80;;;;;;;;;;5053181;28;20174;-63
2024/01/22 05:48:26;;;;;;;2.83;1.10;;;;;;;;;;5053528;28;20246;-64
2024/01/22 05:50:51;;;;;;;0.87;0.87;;;;;;;;;;5053161;28;20644;-65
2024/01/22 05:53:17;;;;;;;1.67;1.27;;;;;;;;;;5053429;28;20651;-64
2024/01/22 05:55:43;;;;;;;2.77;1.10;;;;;;;;;;5053177;28;20178;-65
2024/01/22 05:58:10;;;;;;;1.50;1.07;;;;;;;;;;5035206;28;20186;-65
2024/01/22 06:00:38;;;;;;;1.47;1.10;;;;;;;;;;5052914;28;20245;-64
2024/01/22 06:03:04;;;;;;;1.00;0.90;;;;;;;;;;5052938;28;20198;-65
2024/01/22 06:05:30;;;;;;;1.73;1.20;;;;;;;;;;5035125;28;20555;-65
2024/01/22 06:07:56;;;;;;;2.63;1.80;;;;;;;;;;5053075;28;20209;-65
2024/01/22 06:10:22;;;;;;;1.97;1.30;;;;;;;;;;5052710;28;20198;-64
2024/01/22 06:12:48;;;;;;;8.23;3.10;;;;;;;;;;5052828;28;20737;-66
2024/01/22 06:15:14;;;;;;;1.20;1.10;;;;;;;;;;5034906;28;20209;-65
2024/01/22 06:17:40;;;;;;;1.27;1.10;;;;;;;;;;5034637;28;20210;-65
2024/01/22 06:20:06;;;;;;;0.87;0.87;;;;;;;;;;5052875;28;20217;-65
2024/01/22 06:22:33;;;;;;;1.80;1.30;;;;;;;;;;5052619;28;20187;-65
2024/01/22 06:25:00;;;;;;;1.07;1.07;;;;;;;;;;5052630;28;20175;-65
2024/01/22 06:27:26;;;;;;;2.07;1.30;;;;;;;;;;5052508;28;20662;-63
2024/01/22 06:29:56;;;;;;;1.37;1.03;;;;;;;;;;5052664;28;20191;-65
2024/01/22 06:32:22;;;;;;;0.90;0.90;;;;;;;;;;5052715;28;20170;-65
2024/01/22 06:34:48;;;;;;;0.90;0.90;;;;;;;;;;5034615;28;20261;-65
2024/01/22 06:37:15;;;;;;;1.17;1.00;;;;;;;;;;5052603;28;20595;-65
2024/01/22 06:39:41;;;;;;;1.40;1.20;;;;;;;;;;5052225;28;20197;-65
2024/01/22 06:42:07;;;;;;;2.20;1.10;;;;;;;;;;5034595;28;20187;-66
2024/01/22 06:44:33;;;;;;;0.97;0.93;;;;;;;;;;5052539;28;20210;-66
2024/01/22 06:46:59;;;;;;;1.53;1.30;;;;;;;;;;5076642;22;20282;-69
2024/01/22 06:49:25;;;;;;;0.93;0.83;;;;;;;;;;5051677;28;20186;-68
2024/01/22 06:51:51;;;;;;;1.13;1.00;;;;;;;;;;5052996;28;20183;-69
2024/01/22 06:54:19;;;;;;;1.00;1.00;;;;;;;;;;5051598;28;20174;-70
2024/01/22 06:56:45;;;;;;;1.17;1.00;;;;;;;;;;5052088;28;20202;-70
2024/01/22 06:59:11;;;;;;;1.13;1.03;;;;;;;;;;5052792;28;20190;-70
2024/01/22 07:01:37;;;;;;;2.23;1.30;;;;;;;;;;5053318;28;20178;-69
2024/01/22 07:04:03;;;;;;;3.40;1.17;;;;;;;;;;5052552;28;20202;-70
2024/01/22 07:06:29;;;;;;;1.40;1.30;;;;;;;;;;5053179;28;20191;-69
2024/01/22 07:08:55;;;;;;;1.50;1.10;;;;;;;;;;5052908;28;20174;-69
2024/01/22 07:11:21;;;;;;;1.07;1.00;;;;;;;;;;5051397;28;20553;-69
2024/01/22 07:13:47;;;;;;;1.53;1.20;;;;;;;;;;5051719;28;20178;-70
2024/01/22 07:16:13;;;;;;;1.37;1.27;;;;;;;;;;5052499;28;20194;-70
2024/01/22 07:18:39;;;;;;;1.53;1.10;;;;;;;;;;5052615;28;20186;-69
2024/01/22 07:21:06;;;;;;;3.97;1.30;;;;;;;;;;5052701;28;20179;-70
2024/01/22 07:23:32;;;;;;;0.90;0.90;;;;;;;;;;5052700;28;20209;-69
2024/01/22 07:25:59;;;;;;;2.60;1.10;;;;;;;;;;5052569;28;20175;-69
2024/01/22 07:28:25;;;;;;;1.50;1.37;;;;;;;;;;5051456;28;20636;-69
2024/01/22 07:30:51;;;;;;;1.10;1.00;;;;;;;;;;5055421;28;20236;-68
2024/01/22 07:33:17;;;;;;;1.57;1.47;;;;;;;;;;5056394;28;20179;-70
2024/01/22 07:35:43;;;;;;;1.73;1.30;;;;;;;;;;5056392;28;20174;-69
2024/01/22 07:38:08;;;;;;;3.10;1.50;;;;;;;;;;5054978;28;20205;-70
2024/01/22 07:40:34;;;;;;;1.20;1.10;;;;;;;;;;5056329;28;20189;-70
2024/01/22 07:43:00;;;;;;;1.40;1.20;;;;;;;;;;5054907;28;20209;-70
2024/01/22 07:45:26;;;;;;;1.83;1.13;;;;;;;;;;5056313;28;20182;-69
2024/01/22 07:47:52;;;;;;;1.30;1.13;;;;;;;;;;5054852;28;20214;-68
2024/01/22 07:50:20;;;;;;;2.03;1.20;;;;;;;;;;5054754;28;20182;-69
2024/01/22 07:52:46;;;;;;;1.43;1.20;;;;;;;;;;5056538;28;20232;-70
2024/01/22 07:55:13;;;;;;;1.00;1.00;;;;;;;;;;5055899;28;20200;-70
2024/01/22 07:57:39;;;;;;;1.40;1.30;;;;;;;;;;5055861;28;20272;-70
2024/01/22 08:00:11;;;;;;;1.93;1.20;;;;;;;;;;5055915;28;20206;-70
2024/01/22 08:02:37;;;;;;;2.67;1.50;;;;;;;;;;5056295;28;20170;-68
2024/01/22 08:05:03;;;;;;;2.40;1.30;;;;;;;;;;5055992;28;20174;-68
2024/01/22 08:07:29;;;;;;;3.03;1.30;;;;;;;;;;5055394;28;20198;-69
2024/01/22 08:09:55;;;;;;;3.00;1.40;;;;;;;;;;5059208;28;20166;-70
2024/01/22 08:12:22;;;;;;;1.30;1.20;;;;;;;;;;5061561;28;20595;-69
2024/01/22 08:14:48;;;;;;;1.27;1.17;;;;;;;;;;5059936;28;20706;-69
2024/01/22 08:17:13;;;;;;;1.67;1.40;;;;;;;;;;5057970;28;20194;-70
2024/01/22 08:19:39;;;;;;;1.87;1.23;;;;;;;;;;5055436;28;20178;-70
2024/01/22 08:22:05;;;;;;;2.37;1.60;;;;;;;;;;5055539;28;20257;-70
2024/01/22 08:24:31;;;;;;;4.57;1.57;;;;;;;;;;5054100;28;20232;-69
2024/01/22 08:26:58;;;;;;;2.73;1.87;;;;;;;;;;5055561;28;20190;-69
2024/01/22 08:29:24;;;;;;;5.13;1.37;;;;;;;;;;5055537;28;20219;-70
2024/01/22 08:31:50;;;;;;;1.93;1.60;;;;;;;;;;5055222;28;20291;-68
2024/01/22 08:34:16;;;;;;;2.20;1.30;;;;;;;;;;5053833;28;20182;-68
2024/01/22 08:36:42;;;;;;;3.00;1.43;;;;;;;;;;5054945;28;20194;-68
2024/01/22 08:39:09;;;;;;;2.30;1.10;;;;;;;;;;5053712;28;20186;-68
2024/01/22 08:41:35;;;;;;;2.70;1.30;;;;;;;;;;5054086;28;20245;-68
2024/01/22 08:44:02;;;;;;;1.03;0.90;;;;;;;;;;5055323;28;20202;-68
2024/01/22 08:46:29;;;;;;;1.50;1.40;;;;;;;;;;5054662;28;20213;-68
2024/01/22 08:48:55;;;;;;;2.13;1.30;;;;;;;;;;5054885;28;20167;-68
2024/01/22 08:51:20;;;;;;;1.57;1.47;;;;;;;;;;5054946;28;20645;-68
2024/01/22 08:53:46;;;;;;;1.53;1.40;;;;;;;;;;5054781;28;20194;-69
2024/01/22 08:56:13;;;;;;;1.67;1.30;;;;;;;;;;5054736;28;20199;-68
2024/01/22 08:58:39;;;;;;;3.93;1.60;;;;;;;;;;5053291;28;20175;-68
2024/01/22 09:01:06;;;;;;;1.93;1.40;;;;;;;;;;5054576;28;20187;-69
2024/01/22 09:03:35;;;;;;;1.97;1.40;;;;;;;;;;5054431;28;20297;-68
2024/01/22 09:06:03;;;;;;;2.83;1.60;;;;;;;;;;5054381;28;20175;-69
2024/01/22 09:08:29;;;;;;;2.00;1.50;;;;;;;;;;5054479;28;20194;-69
2024/01/22 09:10:55;;;;;;;3.17;1.67;;;;;;;;;;5054463;28;20263;-68
2024/01/22 09:13:21;;;;;;;5.73;1.50;;;;;;;;;;5054407;28;20174;-70
2024/01/22 09:15:48;;;;;;;1.87;1.53;;;;;;;;;;5054417;28;20174;-70
2024/01/22 09:18:14;;;;;;;3.40;1.50;;;;;;;;;;5054658;28;20199;-68
2024/01/22 09:20:41;;;;;;;1.83;1.30;;;;;;;;;;5054279;28;20232;-69
2024/01/22 09:23:07;;;;;;;2.33;1.33;;;;;;;;;;5054293;28;20198;-68
2024/01/22 09:25:33;;;;;;;2.73;1.70;;;;;;;;;;5054292;28;20258;-68
2024/01/22 09:28:02;;;;;;;1.30;1.20;;;;;;;;;;5053415;28;20336;-68
2024/01/22 09:30:28;;;;;;;2.27;1.30;;;;;;;;;;5054270;28;20182;-68
2024/01/22 09:32:57;;;;;;;2.53;1.53;;;;;;;;;;5053903;28;20175;-68
2024/01/22 09:35:23;;;;;;;1.43;1.33;;;;;;;;;;5054662;28;20560;-68
2024/01/22 09:37:49;;;;;;;4.97;1.50;;;;;;;;;;5054230;28;20191;-69
2024/01/22 09:40:16;;;;;;;2.80;1.77;;;;;;;;;;5054542;28;20648;-68
2024/01/22 09:42:42;;;;;;;3.73;1.50;;;;;;;;;;5054417;28;20278;-68
2024/01/22 09:45:09;;;;;;;2.93;1.47;;;;;;;;;;5054029;28;20179;-70
2024/01/22 09:47:37;;;;;;;2.67;1.47;;;;;;;;;;5053478;28;20242;-67
2024/01/22 09:50:03;;;;;;;1.90;1.40;;;;;;;;;;5053691;28;20533;-68
2024/01/22 09:52:29;;;;;;;1.97;1.47;;;;;;;;;;5053245;28;20648;-68
2024/01/22 09:54:56;;;;;;;5.23;1.70;;;;;;;;;;5053611;28;20709;-68
2024/01/22 09:57:25;;;;;;;5.70;2.80;;;;;;;;;;5053701;28;20237;-68
2024/01/22 09:59:52;;;;;;;3.43;1.53;;;;;;;;;;5053451;28;20185;-68
2024/01/22 10:02:18;;;;;;;6.70;1.87;;;;;;;;;;5053348;28;20671;-68
2024/01/22 10:04:44;;;;;;;2.87;1.60;;;;;;;;;;5053401;28;20698;-68
2024/01/22 10:07:14;;;;;;;4.37;1.80;;;;;;;;;;5052007;28;20194;-68
2024/01/22 10:09:40;;;;;;;4.17;2.40;;;;;;;;;;5052035;28;20174;-68
2024/01/22 10:12:06;;;;;;;3.43;1.53;;;;;;;;;;5052784;28;20658;-68
2024/01/22 10:14:37;;;;;;;5.73;1.90;;;;;;;;;;5053505;28;20640;-69
2024/01/22 10:17:33;;;;;;;4.93;1.83;;;;;;;;;;5053355;28;20224;-68
2024/01/22 10:20:07;;;;;;;4.97;2.20;;;;;;;;;;5040794;28;20221;-69
2024/01/22 10:22:33;;;;;;;6.10;1.93;;;;;;;;;;5053541;28;20277;-68
2024/01/22 10:24:59;;;;;;;10.80;2.40;;;;;;;;;;5052533;28;20607;-68
2024/01/22 10:27:25;;;;;;;6.20;2.30;;;;;;;;;;5051811;28;20195;-68
2024/01/22 10:29:51;;;;;;;6.80;1.97;;;;;;;;;;5051990;28;20185;-69
2024/01/22 10:32:21;;;;;;;11.80;2.60;;;;;;;;;;5053027;28;20170;-68
2024/01/22 10:34:50;;;;;;;6.03;2.10;;;;;;;;;;5053246;28;20175;-68
2024/01/22 10:37:17;;;;;;;4.00;1.90;;;;;;;;;;5052859;28;20680;-69
2024/01/22 10:39:43;;;;;;;10.37;2.30;;;;;;;;;;5053048;28;20189;-69
2024/01/22 10:42:14;;;;;;;5.03;2.20;;;;;;;;;;5052921;28;20179;-68
2024/01/22 10:44:41;;;;;;;8.97;2.27;;;;;;;;;;5052745;28;20253;-69
2024/01/22 10:47:09;;;;;;;5.93;1.60;;;;;;;;;;5052657;28;20256;-69
2024/01/22 10:49:35;;;;;;;7.20;2.10;;;;;;;;;;5053135;28;20265;-69
2024/01/22 10:52:02;;;;;;;8.10;2.77;;;;;;;;;;5052932;28;20171;-68
2024/01/22 10:54:28;;;;;;;8.33;2.10;;;;;;;;;;5053163;28;20539;-68
2024/01/22 10:57:01;;;;;;;8.27;2.27;;;;;;;;;;5052764;28;20194;-69
2024/01/22 10:59:29;;;;;;;5.70;2.23;;;;;;;;;;5053109;28;20202;-68
2024/01/22 11:01:55;;;;;;;4.53;1.80;;;;;;;;;;5051721;28;20256;-69
2024/01/22 11:04:24;;;;;;;7.57;2.57;;;;;;;;;;5052799;28;20297;-68
2024/01/22 11:06:51;;;;;;;4.70;1.83;;;;;;;;;;5057161;28;20676;-68
2024/01/22 11:09:17;;;;;;;6.07;2.03;;;;;;;;;;5056890;28;20175;-68
2024/01/22 11:11:47;;;;;;;8.80;2.43;;;;;;;;;;5056852;28;20209;-69
2024/01/22 11:14:13;;;;;;;7.07;2.17;;;;;;;;;;5057249;28;20197;-69
2024/01/22 11:16:39;;;;;;;4.20;1.83;;;;;;;;;;5056933;28;20277;-70
2024/01/22 11:19:05;;;;;;;4.43;1.80;;;;;;;;;;5056670;28;20182;-69
2024/01/22 11:21:33;;;;;;;2.57;1.57;;;;;;;;;;5056722;28;20193;-68
2024/01/22 11:24:04;;;;;;;6.27;1.80;;;;;;;;;;5055346;28;20206;-68
2024/01/22 11:26:30;;;;;;;4.40;2.03;;;;;;;;;;5055207;28;20276;-68
2024/01/22 11:29:05;;;;;;;3.80;1.97;;;;;;;;;;5056380;28;20174;-69
2024/01/22 11:31:34;;;;;;;5.63;1.70;;;;;;;;;;5056291;28;20201;-68
2024/01/22 11:34:00;;;;;;;8.93;2.70;;;;;;;;;;5056327;28;20177;-69
2024/01/22 11:36:46;;;;;;;5.07;2.50;;;;;;;;;;5057869;28;20671;-68
2024/01/22 11:39:11;;;;;;;7.23;2.87;;;;;;;;;;5057653;28;20206;-68
2024/01/22 11:41:40;;;;;;;7.37;2.20;;;;;;;;;;5057021;28;20239;-68
2024/01/22 11:44:06;;;;;;;4.70;1.70;;;;;;;;;;5058076;28;20289;-69
2024/01/22 11:46:32;;;;;;;6.43;2.40;;;;;;;;;;5058285;28;20233;-68
2024/01/22 11:49:07;;;;;;;5.53;2.33;;;;;;;;;;5058106;28;20175;-68
2024/01/22 11:51:33;;;;;;;4.93;1.90;;;;;;;;;;5058512;28;20174;-68
2024/01/22 11:53:59;;;;;;;6.27;2.03;;;;;;;;;;5055771;28;20191;-67
2024/01/22 11:56:25;;;;;;;8.87;1.97;;;;;;;;;;5056630;28;20199;-68
2024/01/22 11:58:52;;;;;;;8.80;2.47;;;;;;;;;;5056213;28;20218;-69
2024/01/22 12:01:20;;;;;;;15.63;3.77;;;;;;;;;;5056866;28;20170;-67
2024/01/22 12:03:46;;;;;;;22.13;4.67;;;;;;;;;;5055801;28;20579;-67
2024/01/22 12:06:12;;;;;;;42.70;19.33;;;;;;;;;;5055741;28;20197;-67
2024/01/22 12:08:38;;;;;;;49.13;34.07;;;;;;;;;;5056015;28;20175;-68
2024/01/22 12:11:08;;;;;;;18.20;9.17;;;;;;;;;;5056207;28;20232;-69
2024/01/22 12:13:35;;;;;;;26.03;9.80;;;;;;;;;;5056425;28;20158;-68
2024/01/22 12:16:01;;;;;;;26.47;9.60;;;;;;;;;;5055239;28;20171;-67
2024/01/22 12:18:27;;;;;;;20.83;5.97;;;;;;;;;;5055337;28;20182;-67
2024/01/22 12:20:53;;;;;;;19.27;4.50;;;;;;;;;;5054168;28;20265;-66
2024/01/22 12:23:32;;;;;;;19.43;5.17;;;;;;;;;;5054044;28;20202;-69
2024/01/22 12:25:59;;;;;;;27.13;5.10;;;;;;;;;;5055439;28;20178;-67
2024/01/22 12:28:26;;;;;;;14.90;4.23;;;;;;;;;;5055348;28;20261;-69
2024/01/22 12:30:59;;;;;;;24.77;6.27;;;;;;;;;;5055284;28;20224;-66
2024/01/22 12:33:26;;;;;;;19.43;5.77;;;;;;;;;;5055148;28;20739;-66
2024/01/22 12:36:04;;;;;;;25.17;7.13;;;;;;;;;;5053717;28;20208;-67
2024/01/22 12:38:33;;;;;;;22.17;5.50;;;;;;;;;;5055298;28;20189;-66
2024/01/22 12:41:08;;;;;;;24.23;5.17;;;;;;;;;;5054895;28;20179;-66
2024/01/22 12:43:34;;;;;;;20.50;4.50;;;;;;;;;;5054921;28;20220;-66
2024/01/22 12:46:04;;;;;;;17.97;4.37;;;;;;;;;;5054603;28;20177;-66
2024/01/22 12:48:30;;;;;;;21.80;4.53;;;;;;;;;;5055121;28;20175;-65
2024/01/22 12:50:56;;;;;;;12.70;3.63;;;;;;;;;;5053586;28;20664;-69
2024/01/22 12:53:22;;;;;;;13.57;3.47;;;;;;;;;;5054766;28;20718;-69
2024/01/22 12:55:48;;;;;;;15.67;4.80;;;;;;;;;;5053399;28;20182;-69
2024/01/22 12:58:14;;;;;;;17.80;3.97;;;;;;;;;;5053800;28;20233;-69
2024/01/22 13:00:40;;;;;;;15.40;3.87;;;;;;;;;;5055345;28;20180;-67
2024/01/22 13:03:06;;;;;;;16.23;4.47;;;;;;;;;;5054803;28;20206;-67
2024/01/22 13:05:32;;;;;;;17.00;4.73;;;;;;;;;;5053360;28;20174;-66
2024/01/22 13:07:57;;;;;;;13.97;5.17;;;;;;;;;;5054415;28;20213;-66
2024/01/22 13:10:23;;;;;;;19.97;4.30;;;;;;;;;;5054446;28;20214;-67
2024/01/22 13:12:49;;;;;;;22.47;4.23;;;;;;;;;;5054498;28;20236;-69
2024/01/22 13:15:15;;;;;;;9.83;3.13;;;;;;;;;;5054536;28;20182;-69
2024/01/22 13:17:41;;;;;;;11.07;3.87;;;;;;;;;;5053327;28;20210;-69
2024/01/22 13:20:09;;;;;;;10.90;3.13;;;;;;;;;;5053310;28;20673;-69
2024/01/22 13:22:35;;;;;;;14.23;3.90;;;;;;;;;;5054335;28;20198;-69
2024/01/22 13:25:01;;;;;;;9.27;3.73;;;;;;;;;;5054181;28;20234;-69
2024/01/22 13:27:27;;;;;;;15.87;4.77;;;;;;;;;;5053499;28;20198;-69
2024/01/22 13:29:53;;;;;;;15.17;4.50;;;;;;;;;;5054066;28;20220;-67
2024/01/22 13:32:20;;;;;;;17.73;4.13;;;;;;;;;;5054008;28;20183;-67
2024/01/22 13:34:46;;;;;;;20.17;6.20;;;;;;;;;;5053993;28;20171;-67
2024/01/22 13:37:12;;;;;;;14.90;4.67;;;;;;;;;;5053819;28;20252;-67
2024/01/22 13:39:38;;;;;;;20.17;7.83;;;;;;;;;;5053815;28;20645;-68
2024/01/22 13:42:04;;;;;;;68.47;27.73;;;;;;;;;;5053716;28;20178;-67
2024/01/22 13:44:30;;;;;;;86.73;40.27;;;;;;;;;;5054145;28;20201;-67
2024/01/22 13:46:56;;;;;;;47.57;21.40;;;;;;;;;;5053277;28;20201;-67
2024/01/22 13:49:22;;;;;;;48.50;23.13;;;;;;;;;;5035866;28;20209;-67
2024/01/22 13:51:48;;;;;;;27.83;7.30;;;;;;;;;;5053732;28;20663;-67
2024/01/22 13:54:14;;;;;;;22.23;6.73;;;;;;;;;;5053067;28;20248;-67
2024/01/22 13:56:40;;;;;;;24.87;8.70;;;;;;;;;;5052832;28;20202;-67
2024/01/22 13:59:07;;;;;;;22.17;5.27;;;;;;;;;;5054443;28;20577;-67
2024/01/22 14:01:33;;;;;;;21.47;5.13;;;;;;;;;;5054747;28;20178;-66
2024/01/22 14:03:59;;;;;;;25.87;6.77;;;;;;;;;;5053825;28;20617;-67
2024/01/22 14:06:25;;;;;;;22.37;5.83;;;;;;;;;;5052328;28;20201;-67
2024/01/22 14:08:51;;;;;;;20.07;7.40;;;;;;;;;;5051972;28;20266;-66
2024/01/22 14:11:17;;;;;;;17.73;5.73;;;;;;;;;;5053560;28;20225;-66
2024/01/22 14:13:44;;;;;;;27.27;6.53;;;;;;;;;;5051946;28;20714;-67
2024/01/22 14:16:11;;;;;;;17.90;5.57;;;;;;;;;;5052154;28;20802;-66
2024/01/22 14:18:37;;;;;;;21.93;6.00;;;;;;;;;;5053067;28;20557;-67
2024/01/22 14:21:03;;;;;;;21.07;4.70;;;;;;;;;;5053718;28;20179;-66
2024/01/22 14:23:29;;;;;;;15.50;4.87;;;;;;;;;;5051811;28;20561;-67
2024/01/22 14:25:55;;;;;;;20.27;5.37;;;;;;;;;;5053175;28;20260;-67
2024/01/22 14:28:21;;;;;;;24.77;6.00;;;;;;;;;;5053115;28;20174;-67
2024/01/22 14:30:47;;;;;;;20.00;5.00;;;;;;;;;;5053057;28;20531;-66
2024/01/22 14:33:16;;;;;;;18.93;5.13;;;;;;;;;;5051722;28;20273;-67
2024/01/22 14:35:42;;;;;;;19.10;6.20;;;;;;;;;;5051804;28;20297;-66